sensor_id;sensor_type;location;lat;lon;timestamp;P1;durP1;ratioP1;P2;durP2;ratioP2
22282;SDS011;11310;51.528;21.204;2022-10-16T00:01:44;20.15;;;10.13;;
22282;SDS011;11310;51.528;21.204;2022-10-16T00:04:12;21.23;;;10.02;;
22282;SDS011;11310;51.528;21.204;2022-10-16T00:06:41;16.98;;;9.57;;
22282;SDS011;11310;51.528;21.204;2022-10-16T00:09:09;17.20;;;9.32;;
22282;SDS011;11310;51.528;21.204;2022-10-16T00:11:38;18.63;;;10.23;;
22282;SDS011;11310;51.528;21.204;2022-10-16T00:14:09;23.20;;;10.80;;
22282;SDS011;11310;51.528;21.204;2022-10-16T00:16:40;17.55;;;9.50;;
22282;SDS011;11310;51.528;21.204;2022-10-16T00:19:10;19.08;;;10.60;;
22282;SDS011;11310;51.528;21.204;2022-10-16T00:21:39;16.63;;;9.63;;
22282;SDS011;11310;51.528;21.204;2022-10-16T00:24:09;21.13;;;10.15;;
22282;SDS011;11310;51.528;21.204;2022-10-16T00:26:38;18.88;;;10.40;;
22282;SDS011;11310;51.528;21.204;2022-10-16T00:29:08;17.80;;;9.43;;
22282;SDS011;11310;51.528;21.204;2022-10-16T00:31:36;19.63;;;10.52;;
22282;SDS011;11310;51.528;21.204;2022-10-16T00:34:05;17.40;;;9.73;;
22282;SDS011;11310;51.528;21.204;2022-10-16T00:36:35;17.23;;;9.45;;
22282;SDS011;11310;51.528;21.204;2022-10-16T00:39:03;18.17;;;9.50;;
22282;SDS011;11310;51.528;21.204;2022-10-16T00:41:32;17.45;;;9.38;;
22282;SDS011;11310;51.528;21.204;2022-10-16T00:44:02;18.95;;;10.02;;
22282;SDS011;11310;51.528;21.204;2022-10-16T00:46:33;18.38;;;9.57;;
22282;SDS011;11310;51.528;21.204;2022-10-16T00:49:05;16.30;;;9.02;;
22282;SDS011;11310;51.528;21.204;2022-10-16T00:51:38;19.95;;;10.32;;
22282;SDS011;11310;51.528;21.204;2022-10-16T00:54:10;18.42;;;9.35;;
22282;SDS011;11310;51.528;21.204;2022-10-16T00:56:42;18.25;;;9.40;;
22282;SDS011;11310;51.528;21.204;2022-10-16T00:59:14;19.10;;;9.25;;
22282;SDS011;11310;51.528;21.204;2022-10-16T01:01:44;20.67;;;9.30;;
22282;SDS011;11310;51.528;21.204;2022-10-16T01:04:13;16.20;;;8.80;;
22282;SDS011;11310;51.528;21.204;2022-10-16T01:06:46;19.63;;;10.60;;
22282;SDS011;11310;51.528;21.204;2022-10-16T01:09:21;16.35;;;8.85;;
22282;SDS011;11310;51.528;21.204;2022-10-16T01:11:56;16.95;;;8.77;;
22282;SDS011;11310;51.528;21.204;2022-10-16T01:14:35;16.83;;;9.30;;
22282;SDS011;11310;51.528;21.204;2022-10-16T01:17:10;19.77;;;8.20;;
22282;SDS011;11310;51.528;21.204;2022-10-16T01:19:50;19.58;;;8.90;;
22282;SDS011;11310;51.528;21.204;2022-10-16T01:22:33;17.63;;;9.18;;
22282;SDS011;11310;51.528;21.204;2022-10-16T01:25:09;16.40;;;9.55;;
22282;SDS011;11310;51.528;21.204;2022-10-16T01:27:45;16.13;;;8.55;;
22282;SDS011;11310;51.528;21.204;2022-10-16T01:30:17;20.65;;;9.15;;
22282;SDS011;11310;51.528;21.204;2022-10-16T01:32:49;17.65;;;8.88;;
22282;SDS011;11310;51.528;21.204;2022-10-16T01:35:23;17.05;;;8.35;;
22282;SDS011;11310;51.528;21.204;2022-10-16T01:37:58;15.68;;;8.90;;
22282;SDS011;11310;51.528;21.204;2022-10-16T01:40:32;17.63;;;8.93;;
22282;SDS011;11310;51.528;21.204;2022-10-16T01:43:04;15.25;;;8.13;;
22282;SDS011;11310;51.528;21.204;2022-10-16T01:45:35;18.65;;;8.90;;
22282;SDS011;11310;51.528;21.204;2022-10-16T01:48:04;16.40;;;8.55;;
22282;SDS011;11310;51.528;21.204;2022-10-16T01:50:37;18.02;;;8.85;;
22282;SDS011;11310;51.528;21.204;2022-10-16T01:53:08;17.98;;;8.80;;
22282;SDS011;11310;51.528;21.204;2022-10-16T01:55:43;18.63;;;8.68;;
22282;SDS011;11310;51.528;21.204;2022-10-16T01:58:15;15.50;;;8.68;;
22282;SDS011;11310;51.528;21.204;2022-10-16T02:00:44;16.60;;;8.77;;
22282;SDS011;11310;51.528;21.204;2022-10-16T02:03:17;15.10;;;8.13;;
22282;SDS011;11310;51.528;21.204;2022-10-16T02:05:49;14.98;;;8.27;;
22282;SDS011;11310;51.528;21.204;2022-10-16T02:08:22;18.42;;;8.45;;
22282;SDS011;11310;51.528;21.204;2022-10-16T02:10:52;17.88;;;8.32;;
22282;SDS011;11310;51.528;21.204;2022-10-16T02:13:23;13.90;;;7.90;;
22282;SDS011;11310;51.528;21.204;2022-10-16T02:15:58;16.20;;;7.80;;
22282;SDS011;11310;51.528;21.204;2022-10-16T02:18:26;16.35;;;8.35;;
22282;SDS011;11310;51.528;21.204;2022-10-16T02:20:58;16.05;;;7.90;;
22282;SDS011;11310;51.528;21.204;2022-10-16T02:23:30;18.83;;;7.65;;
22282;SDS011;11310;51.528;21.204;2022-10-16T02:26:07;17.08;;;8.45;;
22282;SDS011;11310;51.528;21.204;2022-10-16T02:28:42;16.85;;;8.13;;
22282;SDS011;11310;51.528;21.204;2022-10-16T02:31:16;15.07;;;8.27;;
22282;SDS011;11310;51.528;21.204;2022-10-16T02:33:51;16.50;;;7.63;;
22282;SDS011;11310;51.528;21.204;2022-10-16T02:36:22;15.27;;;8.13;;
22282;SDS011;11310;51.528;21.204;2022-10-16T02:38:51;16.58;;;8.13;;
22282;SDS011;11310;51.528;21.204;2022-10-16T02:43:53;13.20;;;7.53;;
22282;SDS011;11310;51.528;21.204;2022-10-16T02:46:22;15.90;;;7.82;;
22282;SDS011;11310;51.528;21.204;2022-10-16T02:48:51;14.57;;;8.18;;
22282;SDS011;11310;51.528;21.204;2022-10-16T02:51:19;19.63;;;8.05;;
22282;SDS011;11310;51.528;21.204;2022-10-16T02:53:50;17.60;;;8.85;;
22282;SDS011;11310;51.528;21.204;2022-10-16T02:56:19;19.20;;;8.20;;
22282;SDS011;11310;51.528;21.204;2022-10-16T02:58:47;16.35;;;7.40;;
22282;SDS011;11310;51.528;21.204;2022-10-16T03:01:17;15.27;;;7.78;;
22282;SDS011;11310;51.528;21.204;2022-10-16T03:03:46;16.70;;;8.43;;
22282;SDS011;11310;51.528;21.204;2022-10-16T03:06:14;15.98;;;7.30;;
22282;SDS011;11310;51.528;21.204;2022-10-16T03:08:43;13.32;;;7.55;;
22282;SDS011;11310;51.528;21.204;2022-10-16T03:11:11;17.20;;;7.43;;
22282;SDS011;11310;51.528;21.204;2022-10-16T03:13:40;15.07;;;8.10;;
22282;SDS011;11310;51.528;21.204;2022-10-16T03:16:08;13.60;;;7.72;;
22282;SDS011;11310;51.528;21.204;2022-10-16T03:18:39;13.93;;;7.13;;
22282;SDS011;11310;51.528;21.204;2022-10-16T03:21:07;14.68;;;7.88;;
22282;SDS011;11310;51.528;21.204;2022-10-16T03:23:36;13.10;;;6.93;;
22282;SDS011;11310;51.528;21.204;2022-10-16T03:26:04;15.07;;;7.78;;
22282;SDS011;11310;51.528;21.204;2022-10-16T03:28:33;15.27;;;7.35;;
22282;SDS011;11310;51.528;21.204;2022-10-16T03:31:01;16.17;;;8.23;;
22282;SDS011;11310;51.528;21.204;2022-10-16T03:33:30;14.13;;;7.50;;
22282;SDS011;11310;51.528;21.204;2022-10-16T03:36:00;15.68;;;7.80;;
22282;SDS011;11310;51.528;21.204;2022-10-16T03:38:28;15.60;;;6.80;;
22282;SDS011;11310;51.528;21.204;2022-10-16T03:40:57;15.20;;;7.20;;
22282;SDS011;11310;51.528;21.204;2022-10-16T03:43:25;14.82;;;7.43;;
22282;SDS011;11310;51.528;21.204;2022-10-16T03:45:54;16.05;;;7.78;;
22282;SDS011;11310;51.528;21.204;2022-10-16T03:48:22;15.52;;;7.32;;
22282;SDS011;11310;51.528;21.204;2022-10-16T03:50:51;13.50;;;6.95;;
22282;SDS011;11310;51.528;21.204;2022-10-16T03:53:21;15.10;;;8.20;;
22282;SDS011;11310;51.528;21.204;2022-10-16T03:55:50;13.90;;;7.65;;
22282;SDS011;11310;51.528;21.204;2022-10-16T03:58:18;13.48;;;7.85;;
22282;SDS011;11310;51.528;21.204;2022-10-16T04:00:47;16.52;;;8.48;;
22282;SDS011;11310;51.528;21.204;2022-10-16T04:03:17;16.25;;;8.77;;
22282;SDS011;11310;51.528;21.204;2022-10-16T04:05:46;19.70;;;8.32;;
22282;SDS011;11310;51.528;21.204;2022-10-16T04:08:14;16.25;;;8.77;;
22282;SDS011;11310;51.528;21.204;2022-10-16T04:10:45;16.83;;;8.35;;
22282;SDS011;11310;51.528;21.204;2022-10-16T04:13:14;22.55;;;9.07;;
22282;SDS011;11310;51.528;21.204;2022-10-16T04:15:42;19.13;;;8.77;;
22282;SDS011;11310;51.528;21.204;2022-10-16T04:18:13;19.58;;;8.75;;
22282;SDS011;11310;51.528;21.204;2022-10-16T04:20:42;19.38;;;8.70;;
22282;SDS011;11310;51.528;21.204;2022-10-16T04:23:10;19.13;;;8.88;;
22282;SDS011;11310;51.528;21.204;2022-10-16T04:25:38;25.63;;;8.20;;
22282;SDS011;11310;51.528;21.204;2022-10-16T04:28:10;17.90;;;9.00;;
22282;SDS011;11310;51.528;21.204;2022-10-16T04:30:38;16.77;;;7.97;;
22282;SDS011;11310;51.528;21.204;2022-10-16T04:33:08;17.52;;;8.07;;
22282;SDS011;11310;51.528;21.204;2022-10-16T04:35:37;22.92;;;9.07;;
22282;SDS011;11310;51.528;21.204;2022-10-16T04:38:05;17.77;;;8.75;;
22282;SDS011;11310;51.528;21.204;2022-10-16T04:40:33;19.75;;;8.60;;
22282;SDS011;11310;51.528;21.204;2022-10-16T04:43:03;16.95;;;8.27;;
22282;SDS011;11310;51.528;21.204;2022-10-16T04:45:34;16.40;;;8.10;;
22282;SDS011;11310;51.528;21.204;2022-10-16T04:48:02;16.40;;;7.80;;
22282;SDS011;11310;51.528;21.204;2022-10-16T04:50:30;19.55;;;8.57;;
22282;SDS011;11310;51.528;21.204;2022-10-16T04:53:05;16.73;;;8.85;;
22282;SDS011;11310;51.528;21.204;2022-10-16T04:55:34;21.40;;;9.10;;
22282;SDS011;11310;51.528;21.204;2022-10-16T04:58:03;16.40;;;8.38;;
22282;SDS011;11310;51.528;21.204;2022-10-16T05:00:36;18.65;;;8.45;;
22282;SDS011;11310;51.528;21.204;2022-10-16T05:03:08;14.25;;;7.82;;
22282;SDS011;11310;51.528;21.204;2022-10-16T05:05:41;14.13;;;8.40;;
22282;SDS011;11310;51.528;21.204;2022-10-16T05:08:17;13.85;;;7.95;;
22282;SDS011;11310;51.528;21.204;2022-10-16T05:10:46;16.85;;;7.93;;
22282;SDS011;11310;51.528;21.204;2022-10-16T05:13:19;16.25;;;7.85;;
22282;SDS011;11310;51.528;21.204;2022-10-16T05:15:49;17.23;;;9.00;;
22282;SDS011;11310;51.528;21.204;2022-10-16T05:18:18;17.67;;;8.45;;
22282;SDS011;11310;51.528;21.204;2022-10-16T05:20:47;15.80;;;8.60;;
22282;SDS011;11310;51.528;21.204;2022-10-16T05:23:15;22.75;;;8.48;;
22282;SDS011;11310;51.528;21.204;2022-10-16T05:25:51;14.98;;;7.72;;
22282;SDS011;11310;51.528;21.204;2022-10-16T05:28:21;15.98;;;9.13;;
22282;SDS011;11310;51.528;21.204;2022-10-16T05:30:54;16.67;;;8.95;;
22282;SDS011;11310;51.528;21.204;2022-10-16T05:33:23;18.80;;;9.27;;
22282;SDS011;11310;51.528;21.204;2022-10-16T05:35:53;19.42;;;8.90;;
22282;SDS011;11310;51.528;21.204;2022-10-16T05:38:21;21.35;;;9.57;;
22282;SDS011;11310;51.528;21.204;2022-10-16T05:43:23;15.23;;;7.50;;
22282;SDS011;11310;51.528;21.204;2022-10-16T05:45:56;16.33;;;7.78;;
22282;SDS011;11310;51.528;21.204;2022-10-16T05:48:26;16.30;;;7.68;;
22282;SDS011;11310;51.528;21.204;2022-10-16T05:50:56;15.32;;;7.38;;
22282;SDS011;11310;51.528;21.204;2022-10-16T05:53:26;13.65;;;6.97;;
22282;SDS011;11310;51.528;21.204;2022-10-16T05:55:55;12.90;;;6.63;;
22282;SDS011;11310;51.528;21.204;2022-10-16T05:58:25;14.30;;;7.20;;
22282;SDS011;11310;51.528;21.204;2022-10-16T06:01:02;11.98;;;7.15;;
22282;SDS011;11310;51.528;21.204;2022-10-16T06:03:32;11.98;;;6.82;;
22282;SDS011;11310;51.528;21.204;2022-10-16T06:06:06;13.40;;;7.38;;
22282;SDS011;11310;51.528;21.204;2022-10-16T06:08:38;15.48;;;6.90;;
22282;SDS011;11310;51.528;21.204;2022-10-16T06:11:08;14.25;;;6.88;;
22282;SDS011;11310;51.528;21.204;2022-10-16T06:13:38;16.27;;;6.78;;
22282;SDS011;11310;51.528;21.204;2022-10-16T06:18:40;15.10;;;6.53;;
22282;SDS011;11310;51.528;21.204;2022-10-16T06:21:10;11.50;;;6.65;;
22282;SDS011;11310;51.528;21.204;2022-10-16T06:23:40;12.30;;;6.37;;
22282;SDS011;11310;51.528;21.204;2022-10-16T06:26:10;17.70;;;6.47;;
22282;SDS011;11310;51.528;21.204;2022-10-16T06:28:40;13.02;;;6.43;;
22282;SDS011;11310;51.528;21.204;2022-10-16T06:31:09;10.43;;;6.30;;
22282;SDS011;11310;51.528;21.204;2022-10-16T06:33:40;12.23;;;6.28;;
22282;SDS011;11310;51.528;21.204;2022-10-16T06:36:09;15.23;;;6.60;;
22282;SDS011;11310;51.528;21.204;2022-10-16T06:38:40;14.35;;;7.05;;
22282;SDS011;11310;51.528;21.204;2022-10-16T06:41:11;12.90;;;6.97;;
22282;SDS011;11310;51.528;21.204;2022-10-16T06:43:43;15.20;;;6.65;;
22282;SDS011;11310;51.528;21.204;2022-10-16T06:46:20;15.40;;;7.05;;
22282;SDS011;11310;51.528;21.204;2022-10-16T06:48:50;15.82;;;6.35;;
22282;SDS011;11310;51.528;21.204;2022-10-16T06:51:20;11.50;;;5.90;;
22282;SDS011;11310;51.528;21.204;2022-10-16T06:53:53;12.55;;;5.88;;
22282;SDS011;11310;51.528;21.204;2022-10-16T06:56:36;10.93;;;6.05;;
22282;SDS011;11310;51.528;21.204;2022-10-16T06:59:05;11.70;;;6.72;;
22282;SDS011;11310;51.528;21.204;2022-10-16T07:01:35;11.07;;;6.40;;
22282;SDS011;11310;51.528;21.204;2022-10-16T07:04:03;11.35;;;6.43;;
22282;SDS011;11310;51.528;21.204;2022-10-16T07:06:33;11.57;;;6.57;;
22282;SDS011;11310;51.528;21.204;2022-10-16T07:09:03;12.13;;;6.38;;
22282;SDS011;11310;51.528;21.204;2022-10-16T07:11:33;11.97;;;6.13;;
22282;SDS011;11310;51.528;21.204;2022-10-16T07:14:02;14.43;;;7.03;;
22282;SDS011;11310;51.528;21.204;2022-10-16T07:16:32;12.00;;;6.40;;
22282;SDS011;11310;51.528;21.204;2022-10-16T07:19:02;13.32;;;6.10;;
22282;SDS011;11310;51.528;21.204;2022-10-16T07:21:31;11.02;;;5.80;;
22282;SDS011;11310;51.528;21.204;2022-10-16T07:24:03;12.77;;;6.95;;
22282;SDS011;11310;51.528;21.204;2022-10-16T07:26:35;15.43;;;6.45;;
22282;SDS011;11310;51.528;21.204;2022-10-16T07:29:06;13.68;;;6.47;;
22282;SDS011;11310;51.528;21.204;2022-10-16T07:31:35;11.30;;;6.35;;
22282;SDS011;11310;51.528;21.204;2022-10-16T07:34:06;12.18;;;6.18;;
22282;SDS011;11310;51.528;21.204;2022-10-16T07:36:35;11.30;;;6.10;;
22282;SDS011;11310;51.528;21.204;2022-10-16T07:39:04;12.65;;;6.05;;
22282;SDS011;11310;51.528;21.204;2022-10-16T07:41:33;10.82;;;6.38;;
22282;SDS011;11310;51.528;21.204;2022-10-16T07:44:03;12.63;;;5.85;;
22282;SDS011;11310;51.528;21.204;2022-10-16T07:46:33;13.65;;;6.50;;
22282;SDS011;11310;51.528;21.204;2022-10-16T07:49:05;10.48;;;5.88;;
22282;SDS011;11310;51.528;21.204;2022-10-16T07:51:37;12.80;;;6.05;;
22282;SDS011;11310;51.528;21.204;2022-10-16T07:54:08;25.05;;;5.78;;
22282;SDS011;11310;51.528;21.204;2022-10-16T07:56:38;10.82;;;5.32;;
22282;SDS011;11310;51.528;21.204;2022-10-16T07:59:10;10.95;;;5.63;;
22282;SDS011;11310;51.528;21.204;2022-10-16T08:01:42;11.27;;;5.43;;
22282;SDS011;11310;51.528;21.204;2022-10-16T08:04:12;11.52;;;5.82;;
22282;SDS011;11310;51.528;21.204;2022-10-16T08:06:41;11.70;;;5.47;;
22282;SDS011;11310;51.528;21.204;2022-10-16T08:09:11;12.80;;;5.85;;
22282;SDS011;11310;51.528;21.204;2022-10-16T08:11:41;13.43;;;5.63;;
22282;SDS011;11310;51.528;21.204;2022-10-16T08:14:10;11.35;;;6.47;;
22282;SDS011;11310;51.528;21.204;2022-10-16T08:16:40;10.90;;;6.20;;
22282;SDS011;11310;51.528;21.204;2022-10-16T08:19:12;11.63;;;5.30;;
22282;SDS011;11310;51.528;21.204;2022-10-16T08:21:42;9.02;;;5.40;;
22282;SDS011;11310;51.528;21.204;2022-10-16T08:24:11;11.38;;;5.75;;
22282;SDS011;11310;51.528;21.204;2022-10-16T08:26:40;11.65;;;5.07;;
22282;SDS011;11310;51.528;21.204;2022-10-16T08:29:09;11.13;;;5.55;;
22282;SDS011;11310;51.528;21.204;2022-10-16T08:31:37;10.02;;;5.07;;
22282;SDS011;11310;51.528;21.204;2022-10-16T08:34:08;10.05;;;4.53;;
22282;SDS011;11310;51.528;21.204;2022-10-16T08:36:41;17.73;;;11.02;;
22282;SDS011;11310;51.528;21.204;2022-10-16T08:39:10;12.70;;;6.70;;
22282;SDS011;11310;51.528;21.204;2022-10-16T08:47:35;9.63;;;4.90;;
22282;SDS011;11310;51.528;21.204;2022-10-16T08:50:13;10.57;;;4.85;;
22282;SDS011;11310;51.528;21.204;2022-10-16T08:52:53;9.27;;;4.63;;
22282;SDS011;11310;51.528;21.204;2022-10-16T08:55:33;8.93;;;4.82;;
22282;SDS011;11310;51.528;21.204;2022-10-16T08:58:11;10.15;;;5.35;;
22282;SDS011;11310;51.528;21.204;2022-10-16T09:00:41;10.93;;;4.47;;
22282;SDS011;11310;51.528;21.204;2022-10-16T09:03:14;8.15;;;4.70;;
22282;SDS011;11310;51.528;21.204;2022-10-16T09:05:53;10.40;;;4.88;;
22282;SDS011;11310;51.528;21.204;2022-10-16T09:08:33;10.02;;;4.78;;
22282;SDS011;11310;51.528;21.204;2022-10-16T09:11:17;10.23;;;4.78;;
22282;SDS011;11310;51.528;21.204;2022-10-16T09:13:51;9.45;;;4.85;;
22282;SDS011;11310;51.528;21.204;2022-10-16T09:16:27;7.97;;;4.85;;
22282;SDS011;11310;51.528;21.204;2022-10-16T09:19:03;11.15;;;5.45;;
22282;SDS011;11310;51.528;21.204;2022-10-16T09:21:41;10.23;;;5.20;;
22282;SDS011;11310;51.528;21.204;2022-10-16T09:24:20;11.23;;;5.22;;
22282;SDS011;11310;51.528;21.204;2022-10-16T09:26:55;11.63;;;5.70;;
22282;SDS011;11310;51.528;21.204;2022-10-16T09:29:27;9.10;;;5.25;;
22282;SDS011;11310;51.528;21.204;2022-10-16T09:31:56;14.15;;;6.20;;
22282;SDS011;11310;51.528;21.204;2022-10-16T09:34:41;15.88;;;7.45;;
22282;SDS011;11310;51.528;21.204;2022-10-16T09:37:14;13.50;;;6.68;;
22282;SDS011;11310;51.528;21.204;2022-10-16T09:39:50;11.30;;;5.80;;
22282;SDS011;11310;51.528;21.204;2022-10-16T09:42:26;8.98;;;5.20;;
22282;SDS011;11310;51.528;21.204;2022-10-16T09:45:03;12.93;;;5.35;;
22282;SDS011;11310;51.528;21.204;2022-10-16T09:47:32;9.27;;;5.70;;
22282;SDS011;11310;51.528;21.204;2022-10-16T09:50:22;11.45;;;5.32;;
22282;SDS011;11310;51.528;21.204;2022-10-16T09:53:04;18.48;;;8.73;;
22282;SDS011;11310;51.528;21.204;2022-10-16T09:55:35;20.15;;;7.95;;
22282;SDS011;11310;51.528;21.204;2022-10-16T09:58:11;18.50;;;8.88;;
22282;SDS011;11310;51.528;21.204;2022-10-16T10:00:48;23.05;;;7.55;;
22282;SDS011;11310;51.528;21.204;2022-10-16T10:03:33;13.27;;;5.78;;
22282;SDS011;11310;51.528;21.204;2022-10-16T10:06:14;10.38;;;4.95;;
22282;SDS011;11310;51.528;21.204;2022-10-16T10:08:53;9.88;;;4.47;;
22282;SDS011;11310;51.528;21.204;2022-10-16T10:11:41;9.57;;;4.57;;
22282;SDS011;11310;51.528;21.204;2022-10-16T10:14:15;9.68;;;4.38;;
22282;SDS011;11310;51.528;21.204;2022-10-16T10:16:52;8.10;;;4.38;;
22282;SDS011;11310;51.528;21.204;2022-10-16T10:19:37;11.70;;;4.95;;
22282;SDS011;11310;51.528;21.204;2022-10-16T10:22:17;9.07;;;4.80;;
22282;SDS011;11310;51.528;21.204;2022-10-16T10:25:00;11.88;;;4.50;;
22282;SDS011;11310;51.528;21.204;2022-10-16T10:27:44;10.10;;;5.05;;
22282;SDS011;11310;51.528;21.204;2022-10-16T10:30:31;8.02;;;4.40;;
22282;SDS011;11310;51.528;21.204;2022-10-16T10:35:44;8.30;;;4.15;;
22282;SDS011;11310;51.528;21.204;2022-10-16T10:38:20;10.60;;;4.53;;
22282;SDS011;11310;51.528;21.204;2022-10-16T10:41:04;7.28;;;4.07;;
22282;SDS011;11310;51.528;21.204;2022-10-16T10:44:00;8.98;;;4.28;;
22282;SDS011;11310;51.528;21.204;2022-10-16T10:46:34;8.98;;;4.72;;
22282;SDS011;11310;51.528;21.204;2022-10-16T10:52:28;8.70;;;4.20;;
22282;SDS011;11310;51.528;21.204;2022-10-16T10:55:09;10.93;;;4.40;;
22282;SDS011;11310;51.528;21.204;2022-10-16T10:57:49;7.93;;;4.28;;
22282;SDS011;11310;51.528;21.204;2022-10-16T11:00:38;8.48;;;4.25;;
22282;SDS011;11310;51.528;21.204;2022-10-16T11:03:17;8.55;;;4.07;;
22282;SDS011;11310;51.528;21.204;2022-10-16T11:06:04;10.02;;;4.03;;
22282;SDS011;11310;51.528;21.204;2022-10-16T11:08:37;7.97;;;4.03;;
22282;SDS011;11310;51.528;21.204;2022-10-16T11:11:15;8.88;;;4.00;;
22282;SDS011;11310;51.528;21.204;2022-10-16T11:13:51;11.68;;;4.53;;
22282;SDS011;11310;51.528;21.204;2022-10-16T11:16:30;8.40;;;4.32;;
22282;SDS011;11310;51.528;21.204;2022-10-16T11:19:09;8.25;;;4.28;;
22282;SDS011;11310;51.528;21.204;2022-10-16T11:21:43;7.13;;;3.90;;
22282;SDS011;11310;51.528;21.204;2022-10-16T11:24:19;10.82;;;4.20;;
22282;SDS011;11310;51.528;21.204;2022-10-16T11:26:51;6.97;;;3.78;;
22282;SDS011;11310;51.528;21.204;2022-10-16T11:29:25;10.65;;;4.35;;
22282;SDS011;11310;51.528;21.204;2022-10-16T11:31:59;7.05;;;3.75;;
22282;SDS011;11310;51.528;21.204;2022-10-16T11:34:34;9.00;;;3.85;;
22282;SDS011;11310;51.528;21.204;2022-10-16T11:37:10;7.38;;;4.05;;
22282;SDS011;11310;51.528;21.204;2022-10-16T11:39:40;9.55;;;4.05;;
22282;SDS011;11310;51.528;21.204;2022-10-16T11:42:13;6.78;;;4.00;;
22282;SDS011;11310;51.528;21.204;2022-10-16T11:44:50;10.13;;;4.22;;
22282;SDS011;11310;51.528;21.204;2022-10-16T11:47:30;6.97;;;3.85;;
22282;SDS011;11310;51.528;21.204;2022-10-16T11:50:25;10.52;;;4.13;;
22282;SDS011;11310;51.528;21.204;2022-10-16T11:53:01;8.68;;;3.90;;
22282;SDS011;11310;51.528;21.204;2022-10-16T11:55:45;7.47;;;4.35;;
22282;SDS011;11310;51.528;21.204;2022-10-16T11:58:16;9.38;;;3.90;;
22282;SDS011;11310;51.528;21.204;2022-10-16T12:00:53;8.05;;;4.07;;
22282;SDS011;11310;51.528;21.204;2022-10-16T12:03:30;11.48;;;4.05;;
22282;SDS011;11310;51.528;21.204;2022-10-16T12:06:09;7.90;;;3.50;;
22282;SDS011;11310;51.528;21.204;2022-10-16T12:08:51;9.80;;;3.67;;
22282;SDS011;11310;51.528;21.204;2022-10-16T12:14:17;9.00;;;3.88;;
22282;SDS011;11310;51.528;21.204;2022-10-16T12:16:51;9.32;;;3.90;;
22282;SDS011;11310;51.528;21.204;2022-10-16T12:19:28;10.23;;;4.38;;
22282;SDS011;11310;51.528;21.204;2022-10-16T12:22:01;9.75;;;4.03;;
22282;SDS011;11310;51.528;21.204;2022-10-16T12:24:33;6.65;;;3.42;;
22282;SDS011;11310;51.528;21.204;2022-10-16T12:27:20;8.32;;;3.53;;
22282;SDS011;11310;51.528;21.204;2022-10-16T12:29:55;7.78;;;3.75;;
22282;SDS011;11310;51.528;21.204;2022-10-16T12:32:28;6.47;;;3.58;;
22282;SDS011;11310;51.528;21.204;2022-10-16T12:35:18;7.85;;;3.45;;
22282;SDS011;11310;51.528;21.204;2022-10-16T12:37:49;18.40;;;4.00;;
22282;SDS011;11310;51.528;21.204;2022-10-16T12:40:24;7.95;;;4.00;;
22282;SDS011;11310;51.528;21.204;2022-10-16T12:42:56;5.75;;;3.17;;
22282;SDS011;11310;51.528;21.204;2022-10-16T12:45:29;6.82;;;3.38;;
22282;SDS011;11310;51.528;21.204;2022-10-16T12:48:00;7.05;;;3.55;;
22282;SDS011;11310;51.528;21.204;2022-10-16T12:50:32;6.97;;;3.55;;
22282;SDS011;11310;51.528;21.204;2022-10-16T12:53:17;6.70;;;3.08;;
22282;SDS011;11310;51.528;21.204;2022-10-16T12:55:50;7.13;;;3.40;;
22282;SDS011;11310;51.528;21.204;2022-10-16T12:58:37;8.20;;;3.53;;
22282;SDS011;11310;51.528;21.204;2022-10-16T13:01:27;6.72;;;3.60;;
22282;SDS011;11310;51.528;21.204;2022-10-16T13:04:15;6.45;;;3.78;;
22282;SDS011;11310;51.528;21.204;2022-10-16T13:07:06;6.65;;;3.65;;
22282;SDS011;11310;51.528;21.204;2022-10-16T13:09:57;8.05;;;3.78;;
22282;SDS011;11310;51.528;21.204;2022-10-16T13:12:45;9.00;;;3.72;;
22282;SDS011;11310;51.528;21.204;2022-10-16T13:15:34;6.60;;;3.35;;
22282;SDS011;11310;51.528;21.204;2022-10-16T13:18:19;5.75;;;3.22;;
22282;SDS011;11310;51.528;21.204;2022-10-16T13:21:03;8.65;;;4.13;;
22282;SDS011;11310;51.528;21.204;2022-10-16T13:23:45;8.25;;;3.58;;
22282;SDS011;11310;51.528;21.204;2022-10-16T13:26:26;7.63;;;3.72;;
22282;SDS011;11310;51.528;21.204;2022-10-16T13:29:09;7.00;;;3.97;;
22282;SDS011;11310;51.528;21.204;2022-10-16T13:31:38;6.63;;;3.75;;
22282;SDS011;11310;51.528;21.204;2022-10-16T13:34:10;8.90;;;3.78;;
22282;SDS011;11310;51.528;21.204;2022-10-16T13:36:43;7.57;;;4.00;;
22282;SDS011;11310;51.528;21.204;2022-10-16T13:39:15;9.18;;;3.88;;
22282;SDS011;11310;51.528;21.204;2022-10-16T13:42:02;7.40;;;4.32;;
22282;SDS011;11310;51.528;21.204;2022-10-16T13:44:36;8.55;;;3.65;;
22282;SDS011;11310;51.528;21.204;2022-10-16T13:47:13;7.93;;;3.80;;
22282;SDS011;11310;51.528;21.204;2022-10-16T13:49:44;8.05;;;4.07;;
22282;SDS011;11310;51.528;21.204;2022-10-16T13:52:16;7.78;;;4.03;;
22282;SDS011;11310;51.528;21.204;2022-10-16T13:54:48;8.65;;;4.18;;
22282;SDS011;11310;51.528;21.204;2022-10-16T13:57:16;7.50;;;3.92;;
22282;SDS011;11310;51.528;21.204;2022-10-16T13:59:54;8.02;;;3.75;;
22282;SDS011;11310;51.528;21.204;2022-10-16T14:02:25;6.75;;;3.92;;
22282;SDS011;11310;51.528;21.204;2022-10-16T14:04:56;10.70;;;4.45;;
22282;SDS011;11310;51.528;21.204;2022-10-16T14:07:27;8.98;;;4.18;;
22282;SDS011;11310;51.528;21.204;2022-10-16T14:10:03;10.00;;;4.03;;
22282;SDS011;11310;51.528;21.204;2022-10-16T14:12:37;9.13;;;4.60;;
22282;SDS011;11310;51.528;21.204;2022-10-16T14:15:15;9.20;;;4.13;;
22282;SDS011;11310;51.528;21.204;2022-10-16T14:17:50;7.82;;;4.35;;
22282;SDS011;11310;51.528;21.204;2022-10-16T14:20:24;9.73;;;3.97;;
22282;SDS011;11310;51.528;21.204;2022-10-16T14:22:59;8.48;;;4.22;;
22282;SDS011;11310;51.528;21.204;2022-10-16T14:25:31;8.20;;;4.25;;
22282;SDS011;11310;51.528;21.204;2022-10-16T14:28:01;7.75;;;3.92;;
22282;SDS011;11310;51.528;21.204;2022-10-16T14:30:32;9.37;;;4.67;;
22282;SDS011;11310;51.528;21.204;2022-10-16T14:33:03;9.05;;;4.25;;
22282;SDS011;11310;51.528;21.204;2022-10-16T14:35:36;11.05;;;4.55;;
22282;SDS011;11310;51.528;21.204;2022-10-16T14:38:15;9.37;;;5.20;;
22282;SDS011;11310;51.528;21.204;2022-10-16T14:40:49;9.45;;;4.60;;
22282;SDS011;11310;51.528;21.204;2022-10-16T14:43:20;12.48;;;5.63;;
22282;SDS011;11310;51.528;21.204;2022-10-16T14:45:50;8.98;;;4.68;;
22282;SDS011;11310;51.528;21.204;2022-10-16T14:48:22;8.20;;;4.80;;
22282;SDS011;11310;51.528;21.204;2022-10-16T14:50:53;8.25;;;4.70;;
22282;SDS011;11310;51.528;21.204;2022-10-16T14:53:24;11.32;;;4.72;;
22282;SDS011;11310;51.528;21.204;2022-10-16T14:56:07;12.10;;;4.28;;
22282;SDS011;11310;51.528;21.204;2022-10-16T14:58:36;11.18;;;4.22;;
22282;SDS011;11310;51.528;21.204;2022-10-16T15:01:08;9.20;;;4.38;;
22282;SDS011;11310;51.528;21.204;2022-10-16T15:03:38;12.45;;;4.38;;
22282;SDS011;11310;51.528;21.204;2022-10-16T15:06:08;9.45;;;4.10;;
22282;SDS011;11310;51.528;21.204;2022-10-16T15:08:38;12.68;;;4.75;;
22282;SDS011;11310;51.528;21.204;2022-10-16T15:11:09;9.23;;;4.70;;
22282;SDS011;11310;51.528;21.204;2022-10-16T15:13:40;10.50;;;4.40;;
22282;SDS011;11310;51.528;21.204;2022-10-16T15:16:10;13.25;;;4.82;;
22282;SDS011;11310;51.528;21.204;2022-10-16T15:18:40;10.90;;;4.35;;
22282;SDS011;11310;51.528;21.204;2022-10-16T15:21:09;11.63;;;4.95;;
22282;SDS011;11310;51.528;21.204;2022-10-16T15:23:50;7.80;;;4.40;;